Time;durP1;ratioP1;P1;durP2;ratioP2;P2;SDS_P1;SDS_P2;PMS_P1;PMS_P2;Temp;Humidity;BMP_temperature;BMP_pressure;BME280_temperature;BME280_humidity;BME280_pressure;Samples;Min_cycle;Max_cycle;Signal;HPM_P1;HPM_P2
2022/03/17 00:00:42;;;;;;;;;;;6.80;73.00;;;;;;5088105;28;20007;-74
2022/03/17 00:03:08;;;;;;;;;;;6.80;73.10;;;;;;5088075;28;20420;-73
2022/03/17 00:05:33;;;;;;;;;;;6.70;73.10;;;;;;5087895;28;19916;-73
2022/03/17 00:07:59;;;;;;;;;;;6.70;73.10;;;;;;5086695;28;19908;-74
2022/03/17 00:10:24;;;;;;;;;;;6.60;73.20;;;;;;5088097;28;19916;-74
2022/03/17 00:12:50;;;;;;;;;;;6.60;73.20;;;;;;5088196;28;19999;-74
2022/03/17 00:15:16;;;;;;;;;;;6.60;73.70;;;;;;5087856;28;20371;-73
2022/03/17 00:17:42;;;;;;;;;;;6.50;73.20;;;;;;5087957;28;19908;-74
2022/03/17 00:20:10;;;;;;;;;;;6.50;73.10;;;;;;5087877;28;19912;-73
2022/03/17 00:22:36;;;;;;;;;;;6.50;73.20;;;;;;5088071;28;19995;-73
2022/03/17 00:25:05;;;;;;;;;;;6.50;73.40;;;;;;5086442;28;19953;-74
2022/03/17 00:27:31;;;;;;;;;;;6.50;73.90;;;;;;5088016;28;19954;-73
2022/03/17 00:29:57;;;;;;;;;;;6.50;73.30;;;;;;5088051;28;19917;-72
2022/03/17 00:32:23;;;;;;;;;;;6.40;73.30;;;;;;5088869;28;19965;-74
2022/03/17 00:37:33;;;;;;;;;;;6.40;73.20;;;;;;5091823;28;19997;-73
2022/03/17 00:39:58;;;;;;;;;;;6.40;73.10;;;;;;5092120;28;20354;-73
2022/03/17 00:42:24;;;;;;;;;;;6.30;73.10;;;;;;5091804;28;19946;-74
2022/03/17 00:44:50;;;;;;;;;;;6.30;73.20;;;;;;5090580;28;19908;-73
2022/03/17 00:47:16;;;;;;;;;;;6.30;73.20;;;;;;5091782;28;20233;-74
2022/03/17 00:49:42;;;;;;;;;;;6.30;73.40;;;;;;5091846;28;19948;-74
2022/03/17 00:52:10;;;;;;;;;;;6.30;73.50;;;;;;5091849;28;19912;-74
2022/03/17 00:54:36;;;;;;;;;;;6.20;73.50;;;;;;5091459;28;20034;-74
2022/03/17 00:57:01;;;;;;;;;;;6.20;73.60;;;;;;5091406;28;20429;-74
2022/03/17 00:59:27;;;;;;;;;;;6.20;73.80;;;;;;5091473;28;19995;-73
2022/03/17 01:01:53;;;;;;;;;;;6.20;73.90;;;;;;5091413;28;20362;-74
2022/03/17 01:04:18;;;;;;;;;;;6.10;74.00;;;;;;5090212;28;20018;-74
2022/03/17 01:06:44;;;;;;;;;;;6.10;74.00;;;;;;5091370;28;20317;-74
2022/03/17 01:09:09;;;;;;;;;;;6.10;74.30;;;;;;5091410;28;20495;-74
2022/03/17 01:11:35;;;;;;;;;;;6.10;74.50;;;;;;5091401;28;20369;-74
2022/03/17 01:14:00;;;;;;;;;;;6.10;74.50;;;;;;5090397;28;19921;-74
2022/03/17 01:16:26;;;;;;;;;;;6.10;74.60;;;;;;5091230;28;19912;-73
2022/03/17 01:18:52;;;;;;;;;;;6.00;74.80;;;;;;5091347;28;20373;-74
2022/03/17 01:21:17;;;;;;;;;;;6.00;74.80;;;;;;5091316;28;19934;-74
2022/03/17 01:23:43;;;;;;;;;;;6.00;75.00;;;;;;5091324;28;19971;-74
2022/03/17 01:26:08;;;;;;;;;;;6.00;75.30;;;;;;5091118;28;20305;-74
2022/03/17 01:28:34;;;;;;;;;;;6.00;75.50;;;;;;5091108;28;20291;-74
2022/03/17 01:30:59;;;;;;;;;;;6.00;75.60;;;;;;5091053;28;19938;-74
2022/03/17 01:33:25;;;;;;;;;;;5.90;75.80;;;;;;5089598;28;19912;-73
2022/03/17 01:35:51;;;;;;;;;;;5.90;76.00;;;;;;5090869;28;19970;-74
2022/03/17 01:38:16;;;;;;;;;;;5.90;76.20;;;;;;5090632;28;19928;-74
2022/03/17 01:40:42;;;;;;;;;;;5.80;76.40;;;;;;5089508;28;19916;-75
2022/03/17 01:43:07;;;;;;;;;;;5.80;76.40;;;;;;5090683;28;19908;-75
2022/03/17 01:45:33;;;;;;;;;;;5.80;76.50;;;;;;5091047;28;20248;-73
2022/03/17 01:47:59;;;;;;;;;;;5.80;76.60;;;;;;5090712;28;19913;-74
2022/03/17 01:50:25;;;;;;;;;;;5.70;76.60;;;;;;5090809;28;19919;-74
2022/03/17 01:52:51;;;;;;;;;;;5.70;76.70;;;;;;5090537;28;20406;-74
2022/03/17 01:55:17;;;;;;;;;;;5.70;76.70;;;;;;5090569;28;19964;-75
2022/03/17 01:57:43;;;;;;;;;;;5.70;77.00;;;;;;5090361;28;19947;-74
2022/03/17 02:00:13;;;;;;;;;;;5.70;77.10;;;;;;5090454;28;19966;-75
2022/03/17 02:02:40;;;;;;;;;;;5.60;77.20;;;;;;5090518;28;19913;-74
2022/03/17 02:05:06;;;;;;;;;;;5.60;77.50;;;;;;5090427;28;19908;-74
2022/03/17 02:07:32;;;;;;;;;;;5.60;77.70;;;;;;5090230;28;20375;-74
2022/03/17 02:09:59;;;;;;;;;;;5.60;77.70;;;;;;5090453;28;19912;-75
2022/03/17 02:15:09;;;;;;;;;;;5.50;77.90;;;;;;5090686;28;20000;-75
2022/03/17 02:17:43;;;;;;;;;;;5.50;78.10;;;;;;5090127;28;19912;-75
2022/03/17 02:20:10;;;;;;;;;;;5.50;78.40;;;;;;5089150;28;19916;-74
2022/03/17 02:22:39;;;;;;;;;;;5.40;78.40;;;;;;5090236;28;19908;-75
2022/03/17 02:27:49;;;;;;;;;;;5.40;78.50;;;;;;5090332;28;19970;-75
2022/03/17 02:30:19;;;;;;;;;;;5.30;78.70;;;;;;5089930;28;19982;-75
2022/03/17 02:32:45;;;;;;;;;;;5.30;79.00;;;;;;5088763;28;19924;-75
2022/03/17 02:35:12;;;;;;;;;;;5.30;79.20;;;;;;5088593;28;19930;-75
2022/03/17 02:37:38;;;;;;;;;;;5.30;79.10;;;;;;5089525;28;19920;-75
2022/03/17 02:40:05;;;;;;;;;;;5.30;79.30;;;;;;5089695;28;20278;-75
2022/03/17 02:42:31;;;;;;;;;;;5.30;79.30;;;;;;5089653;28;19974;-74
2022/03/17 02:44:58;;;;;;;;;;;5.30;79.40;;;;;;5089644;28;20388;-74
2022/03/17 02:47:24;;;;;;;;;;;5.30;79.40;;;;;;5089491;28;19918;-74
2022/03/17 02:49:50;;;;;;;;;;;5.30;79.50;;;;;;5088280;28;19987;-75
2022/03/17 02:52:15;;;;;;;;;;;5.30;79.50;;;;;;5089503;28;20422;-76
2022/03/17 02:54:41;;;;;;;;;;;5.30;79.70;;;;;;5088526;28;20011;-75
2022/03/17 02:57:07;;;;;;;;;;;5.30;79.80;;;;;;5089171;28;19912;-75
2022/03/17 02:59:32;;;;;;;;;;;5.30;79.80;;;;;;5087907;28;20197;-75
2022/03/17 03:01:58;;;;;;;;;;;5.30;79.90;;;;;;5089346;28;19912;-75
2022/03/17 03:04:23;;;;;;;;;;;5.30;79.90;;;;;;5088006;28;19977;-74
2022/03/17 03:06:49;;;;;;;;;;;5.30;80.10;;;;;;5087856;28;19912;-75
2022/03/17 03:09:14;;;;;;;;;;;5.40;80.40;;;;;;5087843;28;19912;-76
2022/03/17 03:11:40;;;;;;;;;;;5.30;80.40;;;;;;5089103;28;19978;-75
2022/03/17 03:14:07;;;;;;;;;;;5.40;80.40;;;;;;5089151;28;19929;-75
2022/03/17 03:16:33;;;;;;;;;;;5.40;80.70;;;;;;5088935;28;19929;-75
2022/03/17 03:18:59;;;;;;;;;;;5.40;80.80;;;;;;5087734;28;19963;-75
2022/03/17 03:21:24;;;;;;;;;;;5.40;80.70;;;;;;5088906;28;20382;-74
2022/03/17 03:23:50;;;;;;;;;;;5.40;80.80;;;;;;5089120;28;19916;-74
2022/03/17 03:26:15;;;;;;;;;;;5.40;80.90;;;;;;5088921;28;20259;-74
2022/03/17 03:28:41;;;;;;;;;;;5.30;81.00;;;;;;5088893;28;20331;-74
2022/03/17 03:31:08;;;;;;;;;;;5.30;81.30;;;;;;5088762;28;19908;-74
2022/03/17 03:33:33;;;;;;;;;;;5.40;81.70;;;;;;5088724;28;20061;-75
2022/03/17 03:38:43;;;;;;;;;;;5.40;82.10;;;;;;5089032;28;19931;-75
2022/03/17 03:41:09;;;;;;;;;;;5.50;82.30;;;;;;5087406;28;19920;-74
2022/03/17 03:43:34;;;;;;;;;;;5.50;82.50;;;;;;5088621;28;19965;-75
2022/03/17 03:46:03;;;;;;;;;;;5.50;82.70;;;;;;5088459;28;19912;-75
2022/03/17 03:48:28;;;;;;;;;;;5.50;82.70;;;;;;5087506;28;19924;-75
2022/03/17 03:50:54;;;;;;;;;;;5.50;82.70;;;;;;5088424;28;19912;-74
2022/03/17 03:53:19;;;;;;;;;;;5.50;82.70;;;;;;5087191;28;20255;-75
2022/03/17 03:55:45;;;;;;;;;;;5.50;82.80;;;;;;5088391;28;19916;-75
2022/03/17 03:58:11;;;;;;;;;;;5.50;83.10;;;;;;5088365;28;19912;-75
2022/03/17 04:00:37;;;;;;;;;;;5.50;83.00;;;;;;5088340;28;19916;-75
2022/03/17 04:03:03;;;;;;;;;;;5.60;83.20;;;;;;5088306;28;19919;-74
2022/03/17 04:05:37;;;;;;;;;;;5.50;83.10;;;;;;5088288;28;19924;-74
2022/03/17 04:08:03;;;;;;;;;;;5.50;83.50;;;;;;5088328;28;20358;-74
2022/03/17 04:10:29;;;;;;;;;;;5.50;83.50;;;;;;5088295;28;20125;-75
2022/03/17 04:12:55;;;;;;;;;;;5.50;83.50;;;;;;5086990;28;19916;-75
2022/03/17 04:15:21;;;;;;;;;;;5.50;83.60;;;;;;5086885;28;19915;-75
2022/03/17 04:17:49;;;;;;;;;;;5.50;83.80;;;;;;5088191;28;20019;-75
2022/03/17 04:20:14;;;;;;;;;;;5.50;83.80;;;;;;5088141;28;20329;-75
2022/03/17 04:22:40;;;;;;;;;;;5.50;83.80;;;;;;5088122;28;19966;-75
2022/03/17 04:25:06;;;;;;;;;;;5.60;83.90;;;;;;5088101;28;19912;-75
2022/03/17 04:27:32;;;;;;;;;;;5.60;84.10;;;;;;5087910;28;19973;-75
2022/03/17 04:29:57;;;;;;;;;;;5.60;84.00;;;;;;5088097;28;19955;-75
2022/03/17 04:32:23;;;;;;;;;;;5.60;84.20;;;;;;5088017;28;20350;-75
2022/03/17 04:34:49;;;;;;;;;;;5.60;84.20;;;;;;5088015;28;20289;-74
2022/03/17 04:37:14;;;;;;;;;;;5.60;84.40;;;;;;5087778;28;20293;-74
2022/03/17 04:39:40;;;;;;;;;;;5.60;84.50;;;;;;5088090;28;19981;-75
2022/03/17 04:42:06;;;;;;;;;;;5.60;84.40;;;;;;5086632;28;19908;-75
2022/03/17 04:44:31;;;;;;;;;;;5.60;84.80;;;;;;5087943;28;19935;-75
2022/03/17 04:46:57;;;;;;;;;;;5.60;85.00;;;;;;5087872;28;19923;-76
2022/03/17 04:49:22;;;;;;;;;;;5.70;85.10;;;;;;5087968;28;19912;-75
2022/03/17 04:51:48;;;;;;;;;;;5.70;85.20;;;;;;5086812;28;19916;-75
2022/03/17 04:54:14;;;;;;;;;;;5.70;85.30;;;;;;5087804;28;19923;-75
2022/03/17 04:56:39;;;;;;;;;;;5.70;85.40;;;;;;5087850;28;19962;-74
2022/03/17 04:59:05;;;;;;;;;;;5.70;85.30;;;;;;5086422;28;20007;-74
2022/03/17 05:01:30;;;;;;;;;;;5.80;85.40;;;;;;5087741;28;19928;-75
2022/03/17 05:03:56;;;;;;;;;;;5.80;85.40;;;;;;5087599;28;19916;-75
2022/03/17 05:06:21;;;;;;;;;;;5.70;85.60;;;;;;5086594;28;19908;-75
2022/03/17 05:08:47;;;;;;;;;;;5.70;85.50;;;;;;5087939;28;20011;-76
2022/03/17 05:11:15;;;;;;;;;;;5.70;85.50;;;;;;5087726;28;20370;-75
2022/03/17 05:13:43;;;;;;;;;;;5.70;85.60;;;;;;5087717;28;19976;-75
2022/03/17 05:16:09;;;;;;;;;;;5.70;85.50;;;;;;5086040;28;19913;-76
2022/03/17 05:18:34;;;;;;;;;;;5.70;85.50;;;;;;5088813;28;19908;-76
2022/03/17 05:21:00;;;;;;;;;;;5.70;85.50;;;;;;5089992;28;20267;-75
2022/03/17 05:23:26;;;;;;;;;;;5.80;86.20;;;;;;5091291;28;20214;-75
2022/03/17 05:25:52;;;;;;;;;;;5.90;86.50;;;;;;5091272;28;19912;-75
2022/03/17 05:28:18;;;;;;;;;;;5.90;86.70;;;;;;5091225;28;19909;-75
2022/03/17 05:30:44;;;;;;;;;;;6.00;87.00;;;;;;5089724;28;19908;-75
2022/03/17 05:33:11;;;;;;;;;;;6.10;87.10;;;;;;5089758;28;19924;-74
2022/03/17 05:35:37;;;;;;;;;;;6.20;87.40;;;;;;5091071;28;19995;-75
2022/03/17 05:38:03;;;;;;;;;;;6.30;87.60;;;;;;5090730;28;20080;-75
2022/03/17 05:40:28;;;;;;;;;;;6.30;87.60;;;;;;5091035;28;20014;-74
2022/03/17 05:42:55;;;;;;;;;;;6.40;87.70;;;;;;5090913;28;19908;-76
2022/03/17 05:45:26;;;;;;;;;;;6.50;87.60;;;;;;5090194;28;20273;-75
2022/03/17 05:47:52;;;;;;;;;;;6.60;88.30;;;;;;5090714;28;19908;-76
2022/03/17 05:50:20;;;;;;;;;;;6.70;87.80;;;;;;5089507;28;20336;-75
2022/03/17 05:52:45;;;;;;;;;;;6.70;88.00;;;;;;5090691;28;19916;-75
2022/03/17 05:55:15;;;;;;;;;;;6.80;88.10;;;;;;5089238;28;20332;-74
2022/03/17 05:57:41;;;;;;;;;;;6.90;88.20;;;;;;5090561;28;19919;-75
2022/03/17 06:00:08;;;;;;;;;;;6.90;88.20;;;;;;5090575;28;19916;-75
2022/03/17 06:02:34;;;;;;;;;;;7.00;88.30;;;;;;5090436;28;19977;-75
2022/03/17 06:05:00;;;;;;;;;;;7.00;88.30;;;;;;5090530;28;20362;-75
2022/03/17 06:07:25;;;;;;;;;;;7.10;88.50;;;;;;5090340;28;19912;-74
2022/03/17 06:09:55;;;;;;;;;;;7.20;88.60;;;;;;5090757;28;19908;-76
2022/03/17 06:12:20;;;;;;;;;;;7.30;88.70;;;;;;5090253;28;20002;-75
2022/03/17 06:14:46;;;;;;;;;;;7.40;88.60;;;;;;5090167;28;20003;-75
2022/03/17 06:17:12;;;;;;;;;;;7.50;88.50;;;;;;5090176;28;19919;-75
2022/03/17 06:19:38;;;;;;;;;;;7.50;88.60;;;;;;5090357;28;19994;-74
2022/03/17 06:22:04;;;;;;;;;;;7.60;88.60;;;;;;5090128;28;19919;-74
2022/03/17 06:24:29;;;;;;;;;;;7.60;88.50;;;;;;5090003;28;20282;-75
2022/03/17 06:26:55;;;;;;;;;;;7.70;88.60;;;;;;5089972;28;20014;-75
2022/03/17 06:29:21;;;;;;;;;;;7.70;88.50;;;;;;5089552;28;19919;-75
2022/03/17 06:31:46;;;;;;;;;;;7.70;88.90;;;;;;5089372;28;19920;-75
2022/03/17 06:34:12;;;;;;;;;;;7.70;88.60;;;;;;5089763;28;19924;-76
2022/03/17 06:36:38;;;;;;;;;;;7.70;88.60;;;;;;5089755;28;19916;-76
2022/03/17 06:39:03;;;;;;;;;;;7.70;88.80;;;;;;5089611;28;19919;-75
2022/03/17 06:41:29;;;;;;;;;;;7.70;88.80;;;;;;5089679;28;20008;-76
2022/03/17 06:43:54;;;;;;;;;;;7.70;89.10;;;;;;5089637;28;20362;-76
2022/03/17 06:46:20;;;;;;;;;;;7.70;89.20;;;;;;5088199;28;19916;-76
2022/03/17 06:48:46;;;;;;;;;;;7.70;89.20;;;;;;5089984;28;19912;-75
2022/03/17 06:51:11;;;;;;;;;;;7.70;89.70;;;;;;5089448;28;19961;-75
2022/03/17 06:53:37;;;;;;;;;;;7.80;89.90;;;;;;5089375;28;20333;-76
2022/03/17 06:56:03;;;;;;;;;;;7.80;90.00;;;;;;5089445;28;20016;-75
2022/03/17 06:58:28;;;;;;;;;;;7.80;90.00;;;;;;5089363;28;19920;-75
2022/03/17 07:00:54;;;;;;;;;;;7.90;90.10;;;;;;5089296;28;20359;-76
2022/03/17 07:03:19;;;;;;;;;;;7.90;90.20;;;;;;5088047;28;19912;-75
2022/03/17 07:05:45;;;;;;;;;;;8.00;90.30;;;;;;5088095;28;20006;-75
2022/03/17 07:08:10;;;;;;;;;;;8.00;90.40;;;;;;5089024;28;19919;-75
2022/03/17 07:10:36;;;;;;;;;;;8.10;90.40;;;;;;5087891;28;19919;-76
2022/03/17 07:13:02;;;;;;;;;;;8.10;90.50;;;;;;5089025;28;19916;-75
2022/03/17 07:15:28;;;;;;;;;;;8.20;90.60;;;;;;5088962;28;19939;-75
2022/03/17 07:17:54;;;;;;;;;;;8.20;90.60;;;;;;5088745;28;20299;-76
2022/03/17 07:20:19;;;;;;;;;;;8.30;90.70;;;;;;5089096;28;19916;-76
2022/03/17 07:22:47;;;;;;;;;;;8.30;90.80;;;;;;5088803;28;19912;-76
2022/03/17 07:25:13;;;;;;;;;;;8.40;90.80;;;;;;5088839;28;19912;-76
2022/03/17 07:27:41;;;;;;;;;;;8.40;90.90;;;;;;5088818;28;19915;-75
2022/03/17 07:30:10;;;;;;;;;;;8.40;90.90;;;;;;5089136;28;20277;-75
2022/03/17 07:32:35;;;;;;;;;;;8.40;90.90;;;;;;5088557;28;20444;-76
2022/03/17 07:35:01;;;;;;;;;;;8.50;91.00;;;;;;5088955;28;19920;-75
2022/03/17 07:37:27;;;;;;;;;;;8.50;91.10;;;;;;5088380;28;20264;-76
2022/03/17 07:39:52;;;;;;;;;;;8.60;91.10;;;;;;5088639;28;19913;-75
2022/03/17 07:42:18;;;;;;;;;;;8.60;91.20;;;;;;5088222;28;19966;-75
2022/03/17 07:44:44;;;;;;;;;;;8.60;91.20;;;;;;5088615;28;19908;-75
2022/03/17 07:47:09;;;;;;;;;;;8.70;91.50;;;;;;5087225;28;19952;-75
2022/03/17 07:49:36;;;;;;;;;;;9.00;91.50;;;;;;5088573;28;19913;-76
2022/03/17 07:52:02;;;;;;;;;;;9.20;91.50;;;;;;5086995;28;20515;-75
2022/03/17 07:54:28;;;;;;;;;;;9.50;91.40;;;;;;5087035;28;20424;-75
2022/03/17 07:56:54;;;;;;;;;;;9.60;91.00;;;;;;5088226;28;19912;-75
2022/03/17 07:59:19;;;;;;;;;;;9.70;90.90;;;;;;5088478;28;19908;-74
2022/03/17 08:01:45;;;;;;;;;;;9.70;90.80;;;;;;5086748;28;19912;-75
2022/03/17 08:04:11;;;;;;;;;;;9.70;90.80;;;;;;5088265;28;20374;-76
2022/03/17 08:06:36;;;;;;;;;;;9.70;90.80;;;;;;5087037;28;19934;-75
2022/03/17 08:09:02;;;;;;;;;;;9.70;90.90;;;;;;5088094;28;19916;-75
2022/03/17 08:11:28;;;;;;;;;;;9.70;90.90;;;;;;5087708;28;20018;-75
2022/03/17 08:13:54;;;;;;;;;;;9.70;91.00;;;;;;5087802;28;19998;-75
2022/03/17 08:16:19;;;;;;;;;;;9.80;91.10;;;;;;5087827;28;19913;-75
2022/03/17 08:18:45;;;;;;;;;;;9.90;91.00;;;;;;5087997;28;20346;-74
2022/03/17 08:21:12;;;;;;;;;;;10.00;90.90;;;;;;5088050;28;20000;-74
2022/03/17 08:23:37;;;;;;;;;;;10.00;90.90;;;;;;5087935;28;19916;-75
2022/03/17 08:26:03;;;;;;;;;;;10.10;90.90;;;;;;5087784;28;20354;-75
2022/03/17 08:28:29;;;;;;;;;;;10.10;90.80;;;;;;5086535;28;20266;-75
2022/03/17 08:30:55;;;;;;;;;;;10.10;90.90;;;;;;5087773;28;20431;-75
2022/03/17 08:33:21;;;;;;;;;;;10.30;91.40;;;;;;5087581;28;19916;-75
2022/03/17 08:35:47;;;;;;;;;;;10.90;91.70;;;;;;5087484;28;19922;-74
2022/03/17 08:38:12;;;;;;;;;;;11.70;91.30;;;;;;5087234;28;19928;-75
2022/03/17 08:40:38;;;;;;;;;;;12.50;91.00;;;;;;5087493;28;19908;-75
2022/03/17 08:43:05;;;;;;;;;;;13.30;90.00;;;;;;5086051;28;19916;-74
2022/03/17 08:50:59;;;;;;;;;;;14.80;85.50;;;;;;5087640;28;19962;-75
2022/03/17 08:53:24;;;;;;;;;;;15.30;84.00;;;;;;5087152;28;19920;-75
2022/03/17 08:55:50;;;;;;;;;;;15.60;83.20;;;;;;5091239;28;20320;-75
2022/03/17 08:58:16;;;;;;;;;;;16.00;82.80;;;;;;5091092;28;19913;-74
2022/03/17 09:00:42;;;;;;;;;;;16.50;82.00;;;;;;5090916;28;20502;-75
2022/03/17 09:03:07;;;;;;;;;;;16.80;80.00;;;;;;5091111;28;20002;-74
2022/03/17 09:05:35;;;;;;;;;;;17.10;79.80;;;;;;5090904;28;19908;-74
2022/03/17 09:08:04;;;;;;;;;;;17.40;79.40;;;;;;5091372;28;20009;-74
2022/03/17 09:10:30;;;;;;;;;;;17.70;78.10;;;;;;5090903;28;20041;-74
2022/03/17 09:12:57;;;;;;;;;;;17.90;76.70;;;;;;5090916;28;20401;-74
2022/03/17 09:15:24;;;;;;;;;;;18.10;75.80;;;;;;5090751;28;19916;-74
2022/03/17 09:17:50;;;;;;;;;;;18.20;74.90;;;;;;5090933;28;19912;-73
2022/03/17 09:20:15;;;;;;;;;;;18.30;74.30;;;;;;5090775;28;19998;-73
2022/03/17 09:22:44;;;;;;;;;;;18.50;73.10;;;;;;5090806;28;20423;-73
2022/03/17 09:25:11;;;;;;;;;;;18.50;72.90;;;;;;5090827;28;19915;-72
2022/03/17 09:27:37;;;;;;;;;;;18.70;73.20;;;;;;5089242;28;20307;-74
2022/03/17 09:30:03;;;;;;;;;;;18.90;72.70;;;;;;5089938;28;19920;-74
2022/03/17 09:32:28;;;;;;;;;;;19.20;72.70;;;;;;5090615;28;19916;-74
2022/03/17 09:34:54;;;;;;;;;;;19.60;72.10;;;;;;5089396;28;19931;-74
2022/03/17 09:37:20;;;;;;;;;;;19.90;71.80;;;;;;5090102;28;20010;-74
2022/03/17 09:39:45;;;;;;;;;;;20.10;70.60;;;;;;5090003;28;19943;-74
2022/03/17 09:42:14;;;;;;;;;;;20.10;69.00;;;;;;5090233;28;19961;-74
2022/03/17 09:44:40;;;;;;;;;;;20.20;69.50;;;;;;5088459;28;19908;-75
2022/03/17 09:47:10;;;;;;;;;;;20.40;68.80;;;;;;5089955;28;19908;-74
2022/03/17 09:49:37;;;;;;;;;;;20.50;68.40;;;;;;5090143;28;20321;-75
2022/03/17 09:52:10;;;;;;;;;;;20.60;67.40;;;;;;5089837;28;19969;-74
2022/03/17 09:54:36;;;;;;;;;;;20.60;66.90;;;;;;5088269;28;19912;-74
2022/03/17 09:57:02;;;;;;;;;;;20.60;66.20;;;;;;5089792;28;19916;-75
2022/03/17 09:59:27;;;;;;;;;;;20.70;65.60;;;;;;5089233;28;20381;-74
2022/03/17 10:01:53;;;;;;;;;;;20.60;65.50;;;;;;5088866;28;20061;-75
2022/03/17 10:04:19;;;;;;;;;;;20.70;65.40;;;;;;5089092;28;19909;-74
2022/03/17 10:06:46;;;;;;;;;;;20.90;66.10;;;;;;5089571;28;19932;-75
2022/03/17 10:09:12;;;;;;;;;;;21.10;65.70;;;;;;5089799;28;19956;-75
2022/03/17 10:11:37;;;;;;;;;;;21.30;65.40;;;;;;5089393;28;20309;-75
2022/03/17 10:14:05;;;;;;;;;;;21.60;65.60;;;;;;5089661;28;19912;-74
2022/03/17 10:16:31;;;;;;;;;;;21.90;65.10;;;;;;5089297;28;19931;-75
2022/03/17 10:19:01;;;;;;;;;;;22.10;64.70;;;;;;5089449;28;19912;-74
2022/03/17 10:21:27;;;;;;;;;;;22.50;65.00;;;;;;5089475;28;20102;-75
2022/03/17 10:23:53;;;;;;;;;;;23.00;64.90;;;;;;5089521;28;19956;-74
2022/03/17 10:26:33;;;;;;;;;;;23.20;63.30;;;;;;5089124;28;19998;-74
2022/03/17 10:29:06;;;;;;;;;;;22.70;62.00;;;;;;5089022;28;20004;-75
2022/03/17 10:31:32;;;;;;;;;;;22.30;61.80;;;;;;5088637;28;20414;-74
2022/03/17 10:33:57;;;;;;;;;;;22.10;62.60;;;;;;5087959;28;19918;-75
2022/03/17 10:36:23;;;;;;;;;;;21.90;61.50;;;;;;5088860;28;19916;-75
2022/03/17 10:38:51;;;;;;;;;;;21.60;62.10;;;;;;5087970;28;19931;-75
2022/03/17 10:41:17;;;;;;;;;;;21.70;62.80;;;;;;5088960;28;19916;-74
2022/03/17 10:43:43;;;;;;;;;;;21.90;62.30;;;;;;5089096;28;19908;-76
2022/03/17 10:46:13;;;;;;;;;;;21.90;61.30;;;;;;5089054;28;19930;-75
2022/03/17 10:48:52;;;;;;;;;;;22.10;62.10;;;;;;5088896;28;19913;-75
2022/03/17 10:51:41;;;;;;;;;;;22.60;62.40;;;;;;5088469;28;19909;-74
2022/03/17 10:54:09;;;;;;;;;;;22.90;60.50;;;;;;5085530;28;19908;-75
2022/03/17 10:56:36;;;;;;;;;;;23.20;60.30;;;;;;5088412;28;19950;-75
2022/03/17 10:59:02;;;;;;;;;;;23.10;59.70;;;;;;5088579;28;19916;-74
2022/03/17 11:01:36;;;;;;;;;;;23.20;59.70;;;;;;5088631;28;19915;-73
2022/03/17 11:04:03;;;;;;;;;;;23.30;59.90;;;;;;5088111;28;19981;-74
2022/03/17 11:06:28;;;;;;;;;;;23.40;59.50;;;;;;5087966;28;20015;-74
2022/03/17 11:08:55;;;;;;;;;;;23.20;58.50;;;;;;5088277;28;19998;-74
2022/03/17 11:11:21;;;;;;;;;;;22.70;57.80;;;;;;5087910;28;19916;-74
2022/03/17 11:13:47;;;;;;;;;;;21.90;57.60;;;;;;5087273;28;19981;-74
2022/03/17 11:16:13;;;;;;;;;;;21.00;58.10;;;;;;5087834;28;19920;-74
2022/03/17 11:18:40;;;;;;;;;;;20.20;58.70;;;;;;5088321;28;19908;-74
2022/03/17 11:21:12;;;;;;;;;;;19.60;59.40;;;;;;5088440;28;20324;-73
2022/03/17 11:23:55;;;;;;;;;;;19.00;60.20;;;;;;5086982;28;19916;-73
2022/03/17 11:26:22;;;;;;;;;;;18.60;60.70;;;;;;5086903;28;19912;-74
2022/03/17 11:28:48;;;;;;;;;;;18.20;61.10;;;;;;5086976;28;19943;-74
2022/03/17 11:31:17;;;;;;;;;;;17.80;61.80;;;;;;5088045;28;20229;-74
2022/03/17 11:33:43;;;;;;;;;;;17.50;62.20;;;;;;5086711;28;19912;-74
2022/03/17 11:36:09;;;;;;;;;;;17.20;62.80;;;;;;5087855;28;19977;-73
2022/03/17 11:38:38;;;;;;;;;;;17.00;63.30;;;;;;5087043;28;19968;-73
2022/03/17 11:41:07;;;;;;;;;;;16.90;63.60;;;;;;5087471;28;19915;-74
2022/03/17 11:43:38;;;;;;;;;;;16.80;63.90;;;;;;5088034;28;19919;-74
2022/03/17 11:46:30;;;;;;;;;;;16.60;64.10;;;;;;5087932;28;19908;-74
2022/03/17 11:48:55;;;;;;;;;;;16.40;64.40;;;;;;5086569;28;19957;-73
2022/03/17 11:51:21;;;;;;;;;;;16.30;64.80;;;;;;5085874;28;19974;-74
2022/03/17 11:54:01;;;;;;;;;;;16.40;65.70;;;;;;5087620;28;19908;-73
2022/03/17 11:56:32;;;;;;;;;;;17.10;67.20;;;;;;5087475;28;19951;-74
2022/03/17 11:58:58;;;;;;;;;;;17.90;66.20;;;;;;5088085;28;20017;-74
2022/03/17 12:01:25;;;;;;;;;;;18.40;65.60;;;;;;5087560;28;20391;-74
2022/03/17 12:03:53;;;;;;;;;;;18.90;64.50;;;;;;5087442;28;20239;-74
2022/03/17 12:06:22;;;;;;;;;;;19.50;64.40;;;;;;5087500;28;19961;-74
2022/03/17 12:08:51;;;;;;;;;;;20.00;63.70;;;;;;5087239;28;19994;-74
2022/03/17 12:11:24;;;;;;;;;;;20.30;63.30;;;;;;5086668;28;19937;-74
2022/03/17 12:14:08;;;;;;;;;;;20.40;61.90;;;;;;5087768;28;19909;-74
2022/03/17 12:16:39;;;;;;;;;;;20.40;62.20;;;;;;5087327;28;20281;-74
2022/03/17 12:19:05;;;;;;;;;;;20.60;62.30;;;;;;5087103;28;19919;-74
2022/03/17 12:21:49;;;;;;;;;;;20.80;61.30;;;;;;5087067;28;19908;-74
2022/03/17 12:24:32;;;;;;;;;;;20.60;60.40;;;;;;5087123;28;19978;-74
2022/03/17 12:27:05;;;;;;;;;;;20.10;60.50;;;;;;5087015;28;20226;-74
2022/03/17 12:29:31;;;;;;;;;;;19.70;60.50;;;;;;5090464;28;19908;-75
2022/03/17 12:32:02;;;;;;;;;;;19.30;60.60;;;;;;5091305;28;19934;-74
2022/03/17 12:34:28;;;;;;;;;;;19.20;61.00;;;;;;5091195;28;19916;-74
2022/03/17 12:36:54;;;;;;;;;;;19.00;61.00;;;;;;5090597;28;20003;-74
2022/03/17 12:39:26;;;;;;;;;;;18.70;61.30;;;;;;5090889;28;19908;-73
2022/03/17 12:41:51;;;;;;;;;;;18.40;61.60;;;;;;5091118;28;20337;-74
2022/03/17 12:44:21;;;;;;;;;;;18.30;62.30;;;;;;5090776;28;19924;-74
2022/03/17 12:46:46;;;;;;;;;;;18.50;62.60;;;;;;5090854;28;19912;-75
2022/03/17 12:49:12;;;;;;;;;;;18.60;62.40;;;;;;5090870;28;20290;-73
2022/03/17 12:51:38;;;;;;;;;;;18.90;62.80;;;;;;5091363;28;19908;-75
2022/03/17 12:54:03;;;;;;;;;;;19.10;61.90;;;;;;5090988;28;19912;-75
2022/03/17 12:56:29;;;;;;;;;;;19.20;61.50;;;;;;5090121;28;19912;-74
2022/03/17 12:58:55;;;;;;;;;;;19.20;61.90;;;;;;5090885;28;19912;-75
2022/03/17 13:01:20;;;;;;;;;;;19.50;61.60;;;;;;5090063;28;19948;-75
2022/03/17 13:03:48;;;;;;;;;;;19.90;61.70;;;;;;5089099;28;19913;-74
2022/03/17 13:09:04;;;;;;;;;;;19.60;60.00;;;;;;5090904;28;19915;-74
2022/03/17 13:14:21;;;;;;;;;;;19.00;59.90;;;;;;5090378;28;20224;-73
2022/03/17 13:16:57;;;;;;;;;;;18.60;59.70;;;;;;5090233;28;20114;-74
2022/03/17 13:19:22;;;;;;;;;;;18.30;59.90;;;;;;5090174;28;20350;-75
2022/03/17 13:21:51;;;;;;;;;;;18.00;60.00;;;;;;5090262;28;19912;-74
2022/03/17 13:24:17;;;;;;;;;;;17.80;60.40;;;;;;5090252;28;20298;-74
2022/03/17 13:26:42;;;;;;;;;;;17.70;60.80;;;;;;5089971;28;20347;-74
2022/03/17 13:29:13;;;;;;;;;;;17.80;61.00;;;;;;5088922;28;19955;-74
2022/03/17 13:31:46;;;;;;;;;;;17.90;61.10;;;;;;5089702;28;19908;-75
2022/03/17 13:34:33;;;;;;;;;;;18.10;61.20;;;;;;5089935;28;20215;-74
2022/03/17 13:37:00;;;;;;;;;;;18.20;61.10;;;;;;5088155;28;19945;-75
2022/03/17 13:39:30;;;;;;;;;;;18.40;61.50;;;;;;5089259;28;19952;-75
2022/03/17 13:41:56;;;;;;;;;;;18.50;61.30;;;;;;5089986;28;19919;-74
2022/03/17 13:44:22;;;;;;;;;;;18.50;61.10;;;;;;5089677;28;19918;-75
2022/03/17 13:46:48;;;;;;;;;;;18.60;61.50;;;;;;5089721;28;19913;-74
2022/03/17 13:49:14;;;;;;;;;;;18.90;61.50;;;;;;5089564;28;20270;-75
2022/03/17 13:51:40;;;;;;;;;;;19.30;61.20;;;;;;5088102;28;19915;-75
2022/03/17 13:54:05;;;;;;;;;;;19.60;61.00;;;;;;5088146;28;20278;-75
2022/03/17 13:56:31;;;;;;;;;;;19.50;59.40;;;;;;5087844;28;19912;-74
2022/03/17 13:58:57;;;;;;;;;;;19.40;60.10;;;;;;5089470;28;20428;-74
2022/03/17 14:01:24;;;;;;;;;;;19.10;59.40;;;;;;5088096;28;19908;-74
2022/03/17 14:03:51;;;;;;;;;;;18.70;59.70;;;;;;5087844;28;19923;-75
2022/03/17 14:06:17;;;;;;;;;;;18.50;60.40;;;;;;5087394;28;20270;-75
2022/03/17 14:08:50;;;;;;;;;;;18.40;60.70;;;;;;5089373;28;20282;-75
2022/03/17 14:11:25;;;;;;;;;;;18.30;60.70;;;;;;5088792;28;19924;-74
2022/03/17 14:13:52;;;;;;;;;;;18.20;60.70;;;;;;5088578;28;20346;-75
2022/03/17 14:16:18;;;;;;;;;;;18.00;60.70;;;;;;5087974;28;19935;-75
2022/03/17 14:18:45;;;;;;;;;;;17.90;60.60;;;;;;5086902;28;20010;-76
2022/03/17 14:21:11;;;;;;;;;;;17.70;60.70;;;;;;5087301;28;19959;-74
2022/03/17 14:26:22;;;;;;;;;;;17.40;61.40;;;;;;5088631;28;20298;-74
2022/03/17 14:28:47;;;;;;;;;;;17.30;61.60;;;;;;5088411;28;19913;-75
2022/03/17 14:31:17;;;;;;;;;;;17.30;61.80;;;;;;5088492;28;20272;-74
2022/03/17 14:33:43;;;;;;;;;;;17.30;61.80;;;;;;5088216;28;19908;-74
2022/03/17 14:36:11;;;;;;;;;;;17.20;61.90;;;;;;5087465;28;20056;-74
2022/03/17 14:38:37;;;;;;;;;;;17.20;62.00;;;;;;5087110;28;19924;-74
2022/03/17 14:41:05;;;;;;;;;;;17.30;62.20;;;;;;5087487;28;20386;-75
2022/03/17 14:43:30;;;;;;;;;;;17.40;62.10;;;;;;5087361;28;19920;-74
2022/03/17 14:45:56;;;;;;;;;;;17.30;61.90;;;;;;5087095;28;19908;-74